Time;durP1;ratioP1;P1;durP2;ratioP2;P2;SDS_P1;SDS_P2;PMS_P1;PMS_P2;Temp;Humidity;BMP_temperature;BMP_pressure;BME280_temperature;BME280_humidity;BME280_pressure;Samples;Min_cycle;Max_cycle;Signal;HPM_P1;HPM_P2
2023/05/06 00:00:24;;;;;;;;;;;;;;;;;;4928929;28;19933;-62
2023/05/06 00:02:50;;;;;;;;;;;;;;;;;;4933141;28;20011;-63
2023/05/06 00:05:17;;;;;;;;;;;;;;;;;;4937907;28;19929;-63
2023/05/06 00:07:45;;;;;;;;;;;;;;;;;;4944778;28;19922;-63
2023/05/06 00:10:12;;;;;;;;;;;;;;;;;;4963126;28;20554;-63
2023/05/06 00:12:37;;;;;;;;;;;;;;;;;;4942447;28;20025;-62
2023/05/06 00:15:06;;;;;;;;;;;;;;;;;;4943471;28;19933;-63
2023/05/06 00:17:31;;;;;;;;;;;;;;;;;;4963819;28;19922;-63
2023/05/06 00:19:57;;;;;;;;;;;;;;;;;;4963301;28;20593;-62
2023/05/06 00:22:28;;;;;;;;;;;;;;;;;;4954068;28;19925;-62
2023/05/06 00:24:56;;;;;;;;;;;;;;;;;;4946638;28;19921;-63
2023/05/06 00:27:21;;;;;;;;;;;;;;;;;;4931128;28;19996;-63
2023/05/06 00:29:49;;;;;;;;;;;;;;;;;;4944522;28;20401;-62
2023/05/06 00:32:19;;;;;;;;;;;;;;;;;;4933751;28;20558;-62
2023/05/06 00:34:45;;;;;;;;;;;;;;;;;;4978090;28;19940;-61
2023/05/06 00:37:13;;;;;;;;;;;;;;;;;;4979787;28;20010;-62
2023/05/06 00:39:38;;;;;;;;;;;;;;;;;;4981390;28;20187;-62
2023/05/06 00:42:03;;;;;;;;;;;;;;;;;;4981305;28;19944;-64
2023/05/06 00:44:28;;;;;;;;;;;;;;;;;;4984161;28;19918;-63
2023/05/06 00:46:54;;;;;;;;;;;;;;;;;;4963003;28;20146;-63
2023/05/06 00:49:22;;;;;;;;;;;;;;;;;;4975229;28;20727;-63
2023/05/06 00:51:47;;;;;;;;;;;;;;;;;;4977702;28;19918;-61
2023/05/06 00:54:12;;;;;;;;;;;;;;;;;;4980106;28;19953;-63
2023/05/06 00:56:38;;;;;;;;;;;;;;;;;;4958681;28;19927;-62
2023/05/06 00:59:06;;;;;;;;;;;;;;;;;;4960786;28;19924;-62
2023/05/06 01:01:32;;;;;;;;;;;;;;;;;;4944393;28;20414;-61
2023/05/06 01:03:57;;;;;;;;;;;;;;;;;;4960271;28;20329;-62
2023/05/06 01:06:22;;;;;;;;;;;;;;;;;;4953640;28;20413;-62
2023/05/06 01:08:47;;;;;;;;;;;;;;;;;;4968435;28;19917;-61
2023/05/06 01:11:13;;;;;;;;;;;;;;;;;;4969784;28;19921;-62
2023/05/06 01:13:38;;;;;;;;;;;;;;;;;;4976795;28;19977;-62
2023/05/06 01:16:06;;;;;;;;;;;;;;;;;;4961925;28;20028;-62
2023/05/06 01:18:31;;;;;;;;;;;;;;;;;;4980458;28;19929;-62
2023/05/06 01:20:58;;;;;;;;;;;;;;;;;;4979862;28;19952;-62
2023/05/06 01:23:23;;;;;;;;;;;;;;;;;;4958411;28;19917;-62
2023/05/06 01:25:48;;;;;;;;;;;;;;;;;;4961158;28;19918;-61
2023/05/06 01:28:16;;;;;;;;;;;;;;;;;;4946974;28;19922;-62
2023/05/06 01:30:44;;;;;;;;;;;;;;;;;;4953077;28;20193;-62
2023/05/06 01:33:10;;;;;;;;;;;;;;;;;;4953296;28;19931;-62
2023/05/06 01:35:35;;;;;;;;;;;;;;;;;;4955326;28;19921;-61
2023/05/06 01:38:00;;;;;;;;;;;;;;;;;;4950219;28;20011;-62
2023/05/06 01:40:25;;;;;;;;;;;;;;;;;;4949507;28;20020;-62
2023/05/06 01:42:51;;;;;;;;;;;;;;;;;;4970122;28;20000;-62
2023/05/06 01:45:18;;;;;;;;;;;;;;;;;;4971897;28;19956;-62
2023/05/06 01:47:46;;;;;;;;;;;;;;;;;;4970415;28;19922;-62
2023/05/06 01:50:11;;;;;;;;;;;;;;;;;;4972167;28;19918;-63
2023/05/06 01:52:40;;;;;;;;;;;;;;;;;;4950356;28;21462;-62
2023/05/06 01:55:05;;;;;;;;;;;;;;;;;;4935472;28;19922;-62
2023/05/06 01:57:35;;;;;;;;;;;;;;;;;;4937305;28;19922;-62
2023/05/06 02:00:00;;;;;;;;;;;;;;;;;;4965296;28;20012;-62
2023/05/06 02:02:25;;;;;;;;;;;;;;;;;;4949909;28;19924;-62
2023/05/06 02:04:51;;;;;;;;;;;;;;;;;;4949277;28;19917;-63
2023/05/06 02:07:16;;;;;;;;;;;;;;;;;;4953425;28;19989;-63
2023/05/06 02:09:41;;;;;;;;;;;;;;;;;;4948356;28;19954;-63
2023/05/06 02:12:12;;;;;;;;;;;;;;;;;;4932040;28;19924;-63
2023/05/06 02:14:37;;;;;;;;;;;;;;;;;;4963749;28;19949;-63
2023/05/06 02:17:03;;;;;;;;;;;;;;;;;;4945947;28;19922;-62
2023/05/06 02:19:29;;;;;;;;;;;;;;;;;;4950312;28;22206;-62
2023/05/06 02:21:57;;;;;;;;;;;;;;;;;;4971114;28;19925;-63
2023/05/06 02:24:23;;;;;;;;;;;;;;;;;;4949483;28;19926;-63
2023/05/06 02:26:51;;;;;;;;;;;;;;;;;;4936523;28;19941;-64
2023/05/06 02:29:16;;;;;;;;;;;;;;;;;;4947029;28;19925;-64
2023/05/06 02:31:42;;;;;;;;;;;;;;;;;;4969352;28;19917;-64
2023/05/06 02:34:07;;;;;;;;;;;;;;;;;;4977370;28;19926;-66
2023/05/06 02:36:35;;;;;;;;;;;;;;;;;;4981055;28;19971;-64
2023/05/06 02:39:03;;;;;;;;;;;;;;;;;;4953237;28;19917;-64
2023/05/06 02:41:28;;;;;;;;;;;;;;;;;;4981745;28;19928;-64
2023/05/06 02:43:54;;;;;;;;;;;;;;;;;;4983674;28;19922;-63
2023/05/06 02:46:21;;;;;;;;;;;;;;;;;;4983629;28;19922;-64
2023/05/06 02:48:47;;;;;;;;;;;;;;;;;;4973233;28;21538;-63
2023/05/06 02:51:12;;;;;;;;;;;;;;;;;;4973232;28;19921;-63
2023/05/06 02:53:37;;;;;;;;;;;;;;;;;;4964865;28;19917;-64
2023/05/06 02:56:02;;;;;;;;;;;;;;;;;;4964199;28;19921;-63
2023/05/06 02:58:28;;;;;;;;;;;;;;;;;;4964613;28;19978;-64
2023/05/06 03:00:53;;;;;;;;;;;;;;;;;;4959611;28;19921;-63
2023/05/06 03:03:18;;;;;;;;;;;;;;;;;;4981447;28;19969;-63
2023/05/06 03:05:44;;;;;;;;;;;;;;;;;;4964306;28;19921;-63
2023/05/06 03:08:12;;;;;;;;;;;;;;;;;;4982670;28;20207;-62
2023/05/06 03:10:40;;;;;;;;;;;;;;;;;;4958626;28;20012;-63
2023/05/06 03:13:06;;;;;;;;;;;;;;;;;;4963298;28;19917;-62
2023/05/06 03:15:31;;;;;;;;;;;;;;;;;;4982770;28;19928;-64
2023/05/06 03:17:59;;;;;;;;;;;;;;;;;;4962079;28;19921;-64
2023/05/06 03:20:24;;;;;;;;;;;;;;;;;;4981658;28;20358;-63
2023/05/06 03:22:50;;;;;;;;;;;;;;;;;;4958345;28;19930;-63
2023/05/06 03:25:15;;;;;;;;;;;;;;;;;;4958527;28;20251;-63
2023/05/06 03:27:43;;;;;;;;;;;;;;;;;;4960436;28;20529;-63
2023/05/06 03:30:09;;;;;;;;;;;;;;;;;;4981652;28;19952;-63
2023/05/06 03:32:34;;;;;;;;;;;;;;;;;;4951401;28;19921;-63
2023/05/06 03:35:05;;;;;;;;;;;;;;;;;;4981332;28;19931;-63
2023/05/06 03:37:30;;;;;;;;;;;;;;;;;;4985864;28;19968;-64
2023/05/06 03:39:59;;;;;;;;;;;;;;;;;;4946187;28;19928;-64
2023/05/06 03:42:27;;;;;;;;;;;;;;;;;;4964711;28;20324;-63
2023/05/06 03:44:52;;;;;;;;;;;;;;;;;;4955596;28;19945;-63
2023/05/06 03:47:23;;;;;;;;;;;;;;;;;;4956306;28;19928;-63
2023/05/06 03:49:48;;;;;;;;;;;;;;;;;;4971808;28;20372;-63
2023/05/06 03:52:16;;;;;;;;;;;;;;;;;;4980696;28;20020;-63
2023/05/06 03:54:42;;;;;;;;;;;;;;;;;;4981198;28;19918;-63
2023/05/06 03:57:07;;;;;;;;;;;;;;;;;;4962882;28;19921;-63
2023/05/06 03:59:32;;;;;;;;;;;;;;;;;;4968705;28;19929;-63
2023/05/06 04:01:58;;;;;;;;;;;;;;;;;;4967093;28;19924;-64
2023/05/06 04:04:26;;;;;;;;;;;;;;;;;;4983906;28;19928;-64
2023/05/06 04:06:51;;;;;;;;;;;;;;;;;;4953874;28;20108;-64
2023/05/06 04:09:16;;;;;;;;;;;;;;;;;;4961930;28;20015;-64
2023/05/06 04:11:44;;;;;;;;;;;;;;;;;;4968856;28;20337;-63
2023/05/06 04:14:11;;;;;;;;;;;;;;;;;;4948546;28;19932;-64
2023/05/06 04:16:36;;;;;;;;;;;;;;;;;;4971281;28;19926;-63
2023/05/06 04:19:02;;;;;;;;;;;;;;;;;;4949105;28;20285;-64
2023/05/06 04:21:28;;;;;;;;;;;;;;;;;;4954179;28;20443;-63
2023/05/06 04:23:53;;;;;;;;;;;;;;;;;;4977460;28;20443;-63
2023/05/06 04:26:24;;;;;;;;;;;;;;;;;;4962117;28;20020;-63
2023/05/06 04:28:52;;;;;;;;;;;;;;;;;;4951684;28;19929;-63
2023/05/06 04:31:20;;;;;;;;;;;;;;;;;;4961757;28;19917;-63
2023/05/06 04:33:47;;;;;;;;;;;;;;;;;;4960502;28;20300;-63
2023/05/06 04:36:13;;;;;;;;;;;;;;;;;;4977709;28;19933;-63
2023/05/06 04:38:41;;;;;;;;;;;;;;;;;;4963942;28;19944;-63
2023/05/06 04:41:11;;;;;;;;;;;;;;;;;;4959526;28;20060;-63
2023/05/06 04:43:37;;;;;;;;;;;;;;;;;;4948841;28;19928;-63
2023/05/06 04:46:02;;;;;;;;;;;;;;;;;;4963027;28;20412;-63
2023/05/06 04:48:30;;;;;;;;;;;;;;;;;;4978423;28;19917;-63
2023/05/06 04:50:55;;;;;;;;;;;;;;;;;;4981686;28;19922;-64
2023/05/06 04:53:20;;;;;;;;;;;;;;;;;;4968084;28;20133;-64
2023/05/06 04:55:46;;;;;;;;;;;;;;;;;;4957188;28;21536;-64
2023/05/06 04:58:11;;;;;;;;;;;;;;;;;;4963054;28;19936;-64
2023/05/06 05:00:36;;;;;;;;;;;;;;;;;;4962117;28;19995;-64
2023/05/06 05:03:01;;;;;;;;;;;;;;;;;;4960879;28;21421;-63
2023/05/06 05:05:27;;;;;;;;;;;;;;;;;;4966727;28;19988;-62
2023/05/06 05:07:52;;;;;;;;;;;;;;;;;;4946354;28;19975;-63
2023/05/06 05:10:17;;;;;;;;;;;;;;;;;;4961487;28;20404;-63
2023/05/06 05:12:45;;;;;;;;;;;;;;;;;;4979416;28;19924;-63
2023/05/06 05:15:11;;;;;;;;;;;;;;;;;;4979059;28;20645;-64
2023/05/06 05:17:38;;;;;;;;;;;;;;;;;;4946928;28;20494;-63
2023/05/06 05:20:04;;;;;;;;;;;;;;;;;;4963641;28;19972;-64
2023/05/06 05:22:29;;;;;;;;;;;;;;;;;;4962761;28;20648;-63
2023/05/06 05:25:00;;;;;;;;;;;;;;;;;;4960291;28;20403;-63
2023/05/06 05:27:26;;;;;;;;;;;;;;;;;;4978608;28;19929;-63
2023/05/06 05:29:51;;;;;;;;;;;;;;;;;;4951826;28;20392;-63
2023/05/06 05:32:16;;;;;;;;;;;;;;;;;;4948282;28;20269;-63
2023/05/06 05:34:44;;;;;;;;;;;;;;;;;;4952376;28;20533;-63
2023/05/06 05:37:10;;;;;;;;;;;;;;;;;;4969280;28;20064;-64
2023/05/06 05:39:37;;;;;;;;;;;;;;;;;;4969569;28;20577;-66
2023/05/06 05:42:03;;;;;;;;;;;;;;;;;;4953579;28;20678;-63
2023/05/06 05:44:29;;;;;;;;;;;;;;;;;;4950871;28;19959;-63
2023/05/06 05:46:54;;;;;;;;;;;;;;;;;;4969920;28;21547;-63
2023/05/06 05:49:19;;;;;;;;;;;;;;;;;;4950331;28;20193;-63
2023/05/06 05:51:44;;;;;;;;;;;;;;;;;;4978687;28;20060;-64
2023/05/06 05:54:13;;;;;;;;;;;;;;;;;;4967141;28;19955;-64
2023/05/06 05:56:38;;;;;;;;;;;;;;;;;;4947678;28;19921;-63
2023/05/06 05:59:07;;;;;;;;;;;;;;;;;;4948499;28;19956;-62
2023/05/06 06:01:35;;;;;;;;;;;;;;;;;;4960337;28;19996;-63
2023/05/06 06:04:00;;;;;;;;;;;;;;;;;;4946896;28;20281;-63
2023/05/06 06:06:28;;;;;;;;;;;;;;;;;;4980271;28;19932;-64
2023/05/06 06:08:56;;;;;;;;;;;;;;;;;;4979700;28;19932;-63
2023/05/06 06:11:21;;;;;;;;;;;;;;;;;;4962905;28;19918;-64
2023/05/06 06:13:49;;;;;;;;;;;;;;;;;;4965168;28;19917;-64
2023/05/06 06:16:17;;;;;;;;;;;;;;;;;;4963928;28;20091;-64
2023/05/06 06:18:45;;;;;;;;;;;;;;;;;;4955607;28;20357;-64
2023/05/06 06:21:12;;;;;;;;;;;;;;;;;;4962082;28;19921;-63
2023/05/06 06:23:38;;;;;;;;;;;;;;;;;;4950577;28;19918;-63
2023/05/06 06:26:03;;;;;;;;;;;;;;;;;;4980849;28;19953;-63
2023/05/06 06:28:28;;;;;;;;;;;;;;;;;;4951740;28;19921;-64
2023/05/06 06:30:54;;;;;;;;;;;;;;;;;;4962849;28;19936;-63
2023/05/06 06:33:19;;;;;;;;;;;;;;;;;;4969873;28;19933;-63
2023/05/06 06:35:44;;;;;;;;;;;;;;;;;;4982548;28;20475;-64
2023/05/06 06:38:15;;;;;;;;;;;;;;;;;;4963084;28;19927;-64
2023/05/06 06:40:40;;;;;;;;;;;;;;;;;;4953562;28;19989;-63
2023/05/06 06:43:08;;;;;;;;;;;;;;;;;;4965224;28;20567;-63
2023/05/06 06:45:36;;;;;;;;;;;;;;;;;;4981766;28;19984;-64
2023/05/06 06:48:04;;;;;;;;;;;;;;;;;;4969355;28;19972;-64
2023/05/06 06:50:32;;;;;;;;;;;;;;;;;;4953479;28;19924;-63
2023/05/06 06:52:57;;;;;;;;;;;;;;;;;;4982422;28;19922;-63
2023/05/06 06:55:27;;;;;;;;;;;;;;;;;;4964283;28;19921;-64
2023/05/06 06:57:53;;;;;;;;;;;;;;;;;;4971676;28;20286;-63
2023/05/06 07:00:18;;;;;;;;;;;;;;;;;;4963643;28;20216;-63
2023/05/06 07:02:47;;;;;;;;;;;;;;;;;;4970921;28;20038;-64
2023/05/06 07:05:12;;;;;;;;;;;;;;;;;;4956516;28;19913;-64
2023/05/06 07:07:40;;;;;;;;;;;;;;;;;;4981243;28;19925;-64
2023/05/06 07:10:08;;;;;;;;;;;;;;;;;;4953949;28;20415;-64
2023/05/06 07:12:34;;;;;;;;;;;;;;;;;;4952257;28;20375;-64
2023/05/06 07:14:59;;;;;;;;;;;;;;;;;;4965863;28;20023;-64
2023/05/06 07:17:27;;;;;;;;;;;;;;;;;;4953669;28;19925;-64
2023/05/06 07:19:52;;;;;;;;;;;;;;;;;;4962718;28;20479;-64
2023/05/06 07:22:17;;;;;;;;;;;;;;;;;;4982334;28;20067;-64
2023/05/06 07:24:43;;;;;;;;;;;;;;;;;;4971423;28;19969;-64
2023/05/06 07:27:08;;;;;;;;;;;;;;;;;;4951310;28;20025;-64
2023/05/06 07:29:35;;;;;;;;;;;;;;;;;;4961603;28;20470;-64
2023/05/06 07:32:03;;;;;;;;;;;;;;;;;;4975907;28;20213;-64
2023/05/06 07:34:28;;;;;;;;;;;;;;;;;;4954123;28;20397;-63
2023/05/06 07:36:56;;;;;;;;;;;;;;;;;;4954786;28;20674;-62
2023/05/06 07:39:22;;;;;;;;;;;;;;;;;;4951873;28;19917;-63
2023/05/06 07:41:52;;;;;;;;;;;;;;;;;;4974620;28;19925;-63
2023/05/06 07:44:20;;;;;;;;;;;;;;;;;;4973910;28;21559;-63
2023/05/06 07:46:45;;;;;;;;;;;;;;;;;;4972729;28;19921;-64
2023/05/06 07:49:11;;;;;;;;;;;;;;;;;;4956469;28;19930;-65
2023/05/06 07:51:36;;;;;;;;;;;;;;;;;;4970585;28;19921;-64
2023/05/06 07:54:01;;;;;;;;;;;;;;;;;;4972849;28;19917;-63
2023/05/06 07:56:26;;;;;;;;;;;;;;;;;;4954290;28;19933;-63
2023/05/06 07:58:52;;;;;;;;;;;;;;;;;;4937882;28;20397;-64
2023/05/06 08:01:20;;;;;;;;;;;;;;;;;;4939892;28;19984;-64
2023/05/06 08:03:48;;;;;;;;;;;;;;;;;;4934888;28;19933;-64
2023/05/06 08:06:13;;;;;;;;;;;;;;;;;;4954622;28;19936;-63
2023/05/06 08:08:39;;;;;;;;;;;;;;;;;;4955200;28;19922;-63
2023/05/06 08:11:07;;;;;;;;;;;;;;;;;;4953221;28;20032;-63
2023/05/06 08:13:35;;;;;;;;;;;;;;;;;;4939517;28;19922;-63
2023/05/06 08:16:01;;;;;;;;;;;;;;;;;;4935999;28;19918;-63
2023/05/06 08:18:26;;;;;;;;;;;;;;;;;;4971003;28;20062;-63
2023/05/06 08:20:51;;;;;;;;;;;;;;;;;;4971790;28;20544;-63
2023/05/06 08:23:17;;;;;;;;;;;;;;;;;;4973653;28;19924;-63
2023/05/06 08:25:45;;;;;;;;;;;;;;;;;;4974013;28;19921;-63
2023/05/06 08:28:13;;;;;;;;;;;;;;;;;;4953474;28;20405;-64
2023/05/06 08:30:38;;;;;;;;;;;;;;;;;;4952394;28;20005;-63
2023/05/06 08:33:04;;;;;;;;;;;;;;;;;;4952432;28;19953;-64
2023/05/06 08:35:29;;;;;;;;;;;;;;;;;;4940344;28;20412;-64
2023/05/06 08:37:54;;;;;;;;;;;;;;;;;;4951044;28;19925;-64
2023/05/06 08:40:20;;;;;;;;;;;;;;;;;;4972650;28;20477;-64
2023/05/06 08:42:46;;;;;;;;;;;;;;;;;;4971639;28;20031;-64
2023/05/06 08:45:11;;;;;;;;;;;;;;;;;;4973932;28;20480;-63
2023/05/06 08:47:39;;;;;;;;;;;;;;;;;;4932012;28;19929;-63
2023/05/06 08:50:04;;;;;;;;;;;;;;;;;;4934287;28;19941;-62
2023/05/06 08:52:29;;;;;;;;;;;;;;;;;;4970092;28;20377;-63
2023/05/06 08:55:03;;;;;;;;;;;;;;;;;;4953855;28;20186;-63
2023/05/06 08:57:29;;;;;;;;;;;;;;;;;;4951701;28;19926;-63
2023/05/06 08:59:54;;;;;;;;;;;;;;;;;;4937668;28;20882;-63
2023/05/06 09:02:20;;;;;;;;;;;;;;;;;;4963241;28;20417;-63
2023/05/06 09:04:45;;;;;;;;;;;;;;;;;;4935843;28;19921;-63
2023/05/06 09:07:11;;;;;;;;;;;;;;;;;;4954299;28;21507;-62
2023/05/06 09:09:36;;;;;;;;;;;;;;;;;;4954401;28;20366;-64
2023/05/06 09:12:01;;;;;;;;;;;;;;;;;;4951609;28;20576;-62
2023/05/06 09:14:26;;;;;;;;;;;;;;;;;;4952106;28;19933;-63
2023/05/06 09:16:55;;;;;;;;;;;;;;;;;;4951622;28;19932;-62
2023/05/06 09:19:20;;;;;;;;;;;;;;;;;;4933523;28;20056;-63
2023/05/06 09:21:45;;;;;;;;;;;;;;;;;;4969996;28;19964;-63
2023/05/06 09:24:10;;;;;;;;;;;;;;;;;;4954400;28;20328;-63
2023/05/06 09:26:36;;;;;;;;;;;;;;;;;;4968735;28;19921;-63
2023/05/06 09:29:01;;;;;;;;;;;;;;;;;;4933863;28;19933;-63
2023/05/06 09:31:29;;;;;;;;;;;;;;;;;;4951549;28;19917;-63
2023/05/06 09:33:54;;;;;;;;;;;;;;;;;;4976677;28;20016;-63
2023/05/06 09:36:19;;;;;;;;;;;;;;;;;;4960794;28;19924;-63
2023/05/06 09:38:44;;;;;;;;;;;;;;;;;;4951103;28;19928;-62
2023/05/06 09:41:10;;;;;;;;;;;;;;;;;;4977139;28;19936;-62
2023/05/06 09:43:40;;;;;;;;;;;;;;;;;;4948657;28;19924;-62
2023/05/06 09:46:08;;;;;;;;;;;;;;;;;;4950836;28;19932;-61
2023/05/06 09:48:33;;;;;;;;;;;;;;;;;;4953579;28;19922;-62
2023/05/06 09:50:59;;;;;;;;;;;;;;;;;;4966937;28;20091;-62
2023/05/06 09:53:27;;;;;;;;;;;;;;;;;;4962941;28;20051;-62
2023/05/06 09:55:55;;;;;;;;;;;;;;;;;;4949753;28;19921;-62
2023/05/06 09:58:20;;;;;;;;;;;;;;;;;;4976449;28;20397;-62
2023/05/06 10:00:45;;;;;;;;;;;;;;;;;;4953875;28;19945;-64
2023/05/06 10:03:13;;;;;;;;;;;;;;;;;;4961567;28;20517;-62
2023/05/06 10:05:41;;;;;;;;;;;;;;;;;;4978007;28;19933;-62
2023/05/06 10:08:08;;;;;;;;;;;;;;;;;;4960696;28;19937;-62
2023/05/06 10:10:34;;;;;;;;;;;;;;;;;;4967648;28;20373;-62
2023/05/06 10:12:59;;;;;;;;;;;;;;;;;;4962366;28;19926;-62
2023/05/06 10:15:25;;;;;;;;;;;;;;;;;;4982196;28;19921;-61
2023/05/06 10:17:52;;;;;;;;;;;;;;;;;;4959844;28;20143;-63
2023/05/06 10:20:18;;;;;;;;;;;;;;;;;;4962438;28;20503;-63
2023/05/06 10:22:45;;;;;;;;;;;;;;;;;;4977313;28;20012;-62
2023/05/06 10:25:11;;;;;;;;;;;;;;;;;;4980419;28;20269;-61
2023/05/06 10:27:37;;;;;;;;;;;;;;;;;;4978222;28;19993;-62
2023/05/06 10:30:02;;;;;;;;;;;;;;;;;;4959069;28;20357;-61
2023/05/06 10:32:27;;;;;;;;;;;;;;;;;;4958829;28;20145;-62
2023/05/06 10:34:55;;;;;;;;;;;;;;;;;;4990056;28;19936;-62
2023/05/06 10:37:26;;;;;;;;;;;;;;;;;;4972611;28;20000;-62
2023/05/06 10:39:55;;;;;;;;;;;;;;;;;;4971506;28;19952;-62
2023/05/06 10:42:20;;;;;;;;;;;;;;;;;;4965285;28;19972;-62
2023/05/06 10:44:45;;;;;;;;;;;;;;;;;;4963293;28;20102;-62
2023/05/06 10:47:10;;;;;;;;;;;;;;;;;;4963929;28;19925;-60
2023/05/06 10:49:41;;;;;;;;;;;;;;;;;;4971113;28;19922;-62
2023/05/06 10:52:12;;;;;;;;;;;;;;;;;;4969250;28;20396;-63
2023/05/06 10:54:40;;;;;;;;;;;;;;;;;;4967659;28;20622;-60
2023/05/06 10:57:09;;;;;;;;;;;;;;;;;;4986507;28;19971;-61
2023/05/06 10:59:37;;;;;;;;;;;;;;;;;;4960558;28;19945;-62
2023/05/06 11:02:06;;;;;;;;;;;;;;;;;;4968228;28;19917;-61
2023/05/06 11:04:31;;;;;;;;;;;;;;;;;;4968277;28;19921;-61
2023/05/06 11:06:56;;;;;;;;;;;;;;;;;;4964249;28;20016;-61
2023/05/06 11:09:22;;;;;;;;;;;;;;;;;;4992185;28;20052;-61
2023/05/06 11:11:47;;;;;;;;;;;;;;;;;;4970967;28;19917;-61
2023/05/06 11:14:12;;;;;;;;;;;;;;;;;;4993768;28;19924;-60
2023/05/06 11:16:38;;;;;;;;;;;;;;;;;;4972898;28;20004;-60
2023/05/06 11:19:03;;;;;;;;;;;;;;;;;;4965620;28;20250;-61
2023/05/06 11:21:29;;;;;;;;;;;;;;;;;;4957779;28;19939;-62
2023/05/06 11:23:56;;;;;;;;;;;;;;;;;;4957786;28;20407;-61
2023/05/06 11:26:25;;;;;;;;;;;;;;;;;;4957299;28;20375;-61
2023/05/06 11:28:50;;;;;;;;;;;;;;;;;;4956618;28;19921;-61
2023/05/06 11:31:15;;;;;;;;;;;;;;;;;;4967875;28;20375;-62
2023/05/06 11:33:43;;;;;;;;;;;;;;;;;;4960421;28;19996;-60
2023/05/06 11:36:08;;;;;;;;;;;;;;;;;;4955172;28;21584;-60
2023/05/06 11:38:33;;;;;;;;;;;;;;;;;;4952624;28;20021;-61
2023/05/06 11:41:01;;;;;;;;;;;;;;;;;;4969584;28;21601;-61
2023/05/06 11:43:26;;;;;;;;;;;;;;;;;;4965898;28;20098;-61
2023/05/06 11:45:54;;;;;;;;;;;;;;;;;;4965420;28;20669;-61
2023/05/06 11:48:19;;;;;;;;;;;;;;;;;;4970660;28;19929;-62
2023/05/06 11:50:46;;;;;;;;;;;;;;;;;;4955406;28;19932;-61
2023/05/06 11:53:11;;;;;;;;;;;;;;;;;;4972195;28;20305;-62
2023/05/06 11:55:36;;;;;;;;;;;;;;;;;;4972363;28;19922;-61
2023/05/06 11:58:01;;;;;;;;;;;;;;;;;;4972854;28;19971;-60
2023/05/06 12:00:27;;;;;;;;;;;;;;;;;;4955274;28;19928;-60
2023/05/06 12:02:52;;;;;;;;;;;;;;;;;;4972381;28;20680;-61
2023/05/06 12:05:17;;;;;;;;;;;;;;;;;;4936483;28;20074;-60
2023/05/06 12:07:47;;;;;;;;;;;;;;;;;;4964301;28;20289;-62
2023/05/06 12:10:16;;;;;;;;;;;;;;;;;;4966025;28;19925;-63
2023/05/06 12:12:41;;;;;;;;;;;;;;;;;;4935375;28;19918;-63
2023/05/06 12:15:09;;;;;;;;;;;;;;;;;;4969479;28;20016;-65
2023/05/06 12:17:34;;;;;;;;;;;;;;;;;;4953815;28;19929;-69
2023/05/06 12:19:59;;;;;;;;;;;;;;;;;;4964908;28;19922;-68
2023/05/06 12:22:25;;;;;;;;;;;;;;;;;;4935795;28;20649;-68
2023/05/06 12:24:50;;;;;;;;;;;;;;;;;;4965958;28;19928;-69
2023/05/06 12:27:16;;;;;;;;;;;;;;;;;;4939915;28;20656;-68
2023/05/06 12:29:41;;;;;;;;;;;;;;;;;;4951832;28;20412;-68
2023/05/06 12:32:10;;;;;;;;;;;;;;;;;;4955745;28;20457;-69
2023/05/06 12:34:36;;;;;;;;;;;;;;;;;;4976678;28;19931;-72
2023/05/06 12:37:01;;;;;;;;;;;;;;;;;;4979426;28;19933;-74
2023/05/06 12:39:26;;;;;;;;;;;;;;;;;;4969340;28;19929;-73
2023/05/06 12:41:57;;;;;;;;;;;;;;;;;;4955227;28;19925;-74
2023/05/06 12:44:22;;;;;;;;;;;;;;;;;;4975088;28;19917;-73
2023/05/06 12:46:48;;;;;;;;;;;;;;;;;;4968219;28;19917;-72
2023/05/06 12:49:13;;;;;;;;;;;;;;;;;;4982976;28;19917;-71
2023/05/06 12:51:38;;;;;;;;;;;;;;;;;;4960171;28;19921;-72
2023/05/06 12:54:06;;;;;;;;;;;;;;;;;;4987404;28;20023;-69
2023/05/06 12:56:32;;;;;;;;;;;;;;;;;;4954747;28;19924;-69
2023/05/06 12:58:57;;;;;;;;;;;;;;;;;;4978245;28;20300;-69
2023/05/06 13:01:23;;;;;;;;;;;;;;;;;;4962213;28;19917;-72
2023/05/06 13:03:48;;;;;;;;;;;;;;;;;;4978137;28;19957;-68
2023/05/06 13:06:14;;;;;;;;;;;;;;;;;;4950190;28;19921;-69
2023/05/06 13:08:40;;;;;;;;;;;;;;;;;;4958901;28;20442;-71
2023/05/06 13:11:05;;;;;;;;;;;;;;;;;;4953657;28;19921;-68
2023/05/06 13:13:30;;;;;;;;;;;;;;;;;;4979934;28;20350;-68
2023/05/06 13:15:56;;;;;;;;;;;;;;;;;;4988551;28;19921;-66
2023/05/06 13:18:21;;;;;;;;;;;;;;;;;;4963809;28;20035;-66
2023/05/06 13:20:46;;;;;;;;;;;;;;;;;;4965427;28;19918;-67
2023/05/06 13:23:12;;;;;;;;;;;;;;;;;;4977320;28;20063;-67
2023/05/06 13:25:37;;;;;;;;;;;;;;;;;;4957703;28;19917;-66
2023/05/06 13:28:02;;;;;;;;;;;;;;;;;;4976818;28;20153;-66
2023/05/06 13:30:28;;;;;;;;;;;;;;;;;;4978978;28;19991;-66
2023/05/06 13:32:53;;;;;;;;;;;;;;;;;;4975732;28;20037;-66
2023/05/06 13:35:18;;;;;;;;;;;;;;;;;;4958414;28;19933;-66
2023/05/06 13:37:44;;;;;;;;;;;;;;;;;;4978580;28;19973;-66
2023/05/06 13:40:09;;;;;;;;;;;;;;;;;;4977355;28;19960;-66
2023/05/06 13:42:34;;;;;;;;;;;;;;;;;;4978035;28;20356;-66
2023/05/06 13:45:00;;;;;;;;;;;;;;;;;;4979477;28;19914;-67
2023/05/06 13:47:28;;;;;;;;;;;;;;;;;;4964379;28;19928;-67
2023/05/06 13:49:56;;;;;;;;;;;;;;;;;;4948062;28;20285;-67
2023/05/06 13:52:24;;;;;;;;;;;;;;;;;;4952507;28;19921;-67
2023/05/06 13:54:53;;;;;;;;;;;;;;;;;;4962660;28;20013;-66
2023/05/06 13:57:23;;;;;;;;;;;;;;;;;;4945435;28;19921;-66
2023/05/06 13:59:51;;;;;;;;;;;;;;;;;;4947783;28;20539;-68
2023/05/06 14:02:18;;;;;;;;;;;;;;;;;;4964365;28;20684;-68
2023/05/06 14:04:44;;;;;;;;;;;;;;;;;;4944025;28;20211;-68
2023/05/06 14:07:11;;;;;;;;;;;;;;;;;;4938930;28;20012;-67
2023/05/06 14:09:37;;;;;;;;;;;;;;;;;;4973236;28;19918;-68
2023/05/06 14:12:04;;;;;;;;;;;;;;;;;;4967809;28;19922;-68
2023/05/06 14:14:30;;;;;;;;;;;;;;;;;;4952026;28;20405;-68
2023/05/06 14:16:55;;;;;;;;;;;;;;;;;;4975568;28;19925;-68
2023/05/06 14:19:21;;;;;;;;;;;;;;;;;;4942747;28;19921;-68
2023/05/06 14:21:46;;;;;;;;;;;;;;;;;;4951343;28;20261;-68
2023/05/06 14:24:11;;;;;;;;;;;;;;;;;;4951261;28;19921;-68
2023/05/06 14:26:37;;;;;;;;;;;;;;;;;;4974851;28;19918;-66
2023/05/06 14:29:02;;;;;;;;;;;;;;;;;;4972089;28;20333;-66
2023/05/06 14:31:28;;;;;;;;;;;;;;;;;;4976520;28;20246;-71
2023/05/06 14:33:56;;;;;;;;;;;;;;;;;;4954704;28;19966;-68
2023/05/06 14:36:24;;;;;;;;;;;;;;;;;;4958304;28;19933;-71
2023/05/06 14:38:52;;;;;;;;;;;;;;;;;;4967321;28;20898;-70
2023/05/06 14:41:20;;;;;;;;;;;;;;;;;;4958426;28;19979;-66
2023/05/06 14:43:45;;;;;;;;;;;;;;;;;;4967889;28;19926;-64
2023/05/06 14:46:13;;;;;;;;;;;;;;;;;;4955969;28;19975;-66
2023/05/06 14:48:38;;;;;;;;;;;;;;;;;;4967496;28;19918;-66
2023/05/06 14:51:04;;;;;;;;;;;;;;;;;;4949871;28;20440;-66
2023/05/06 14:53:29;;;;;;;;;;;;;;;;;;4978375;28;19924;-72
2023/05/06 14:55:55;;;;;;;;;;;;;;;;;;4945507;28;20372;-69
2023/05/06 14:58:20;;;;;;;;;;;;;;;;;;4973241;28;19922;-71
2023/05/06 15:00:46;;;;;;;;;;;;;;;;;;4963555;28;20274;-64
2023/05/06 15:03:11;;;;;;;;;;;;;;;;;;4963789;28;19999;-64
2023/05/06 15:05:36;;;;;;;;;;;;;;;;;;4969295;28;21421;-65
2023/05/06 15:08:02;;;;;;;;;;;;;;;;;;4957286;28;20388;-65
2023/05/06 15:10:27;;;;;;;;;;;;;;;;;;4955884;28;19957;-63
2023/05/06 15:12:52;;;;;;;;;;;;;;;;;;4961052;28;20004;-63
2023/05/06 15:15:20;;;;;;;;;;;;;;;;;;4961445;28;20373;-68
2023/05/06 15:17:45;;;;;;;;;;;;;;;;;;4959147;28;19922;-64
2023/05/06 15:20:11;;;;;;;;;;;;;;;;;;4949513;28;19933;-64
2023/05/06 15:22:36;;;;;;;;;;;;;;;;;;4958944;28;19925;-65
2023/05/06 15:25:02;;;;;;;;;;;;;;;;;;4953362;28;20040;-65
2023/05/06 15:27:30;;;;;;;;;;;;;;;;;;4947885;28;19918;-65
2023/05/06 15:30:02;;;;;;;;;;;;;;;;;;4979791;28;21536;-65
2023/05/06 15:32:28;;;;;;;;;;;;;;;;;;4965956;28;19980;-64
2023/05/06 15:34:53;;;;;;;;;;;;;;;;;;4966194;28;20075;-64
2023/05/06 15:37:22;;;;;;;;;;;;;;;;;;4978729;28;19925;-64
2023/05/06 15:39:50;;;;;;;;;;;;;;;;;;4958791;28;20407;-65
2023/05/06 15:42:18;;;;;;;;;;;;;;;;;;4955183;28;20386;-65
2023/05/06 15:44:43;;;;;;;;;;;;;;;;;;4956733;28;20389;-64
2023/05/06 15:47:11;;;;;;;;;;;;;;;;;;4953805;28;19917;-64
2023/05/06 15:49:36;;;;;;;;;;;;;;;;;;4951510;28;19926;-64
2023/05/06 15:52:01;;;;;;;;;;;;;;;;;;4967862;28;20413;-64
2023/05/06 15:54:30;;;;;;;;;;;;;;;;;;4957646;28;19931;-64
2023/05/06 15:56:59;;;;;;;;;;;;;;;;;;4979033;28;19933;-63
2023/05/06 15:59:27;;;;;;;;;;;;;;;;;;4952948;28;19932;-63
2023/05/06 16:01:52;;;;;;;;;;;;;;;;;;4965704;28;19929;-63
2023/05/06 16:04:17;;;;;;;;;;;;;;;;;;4976971;28;20507;-63
2023/05/06 16:06:45;;;;;;;;;;;;;;;;;;4977328;28;19922;-63
2023/05/06 16:09:13;;;;;;;;;;;;;;;;;;4959495;28;19956;-65
2023/05/06 16:11:44;;;;;;;;;;;;;;;;;;4957595;28;19930;-65
2023/05/06 16:14:09;;;;;;;;;;;;;;;;;;4954279;28;20565;-64
2023/05/06 16:16:34;;;;;;;;;;;;;;;;;;4956454;28;20072;-63
2023/05/06 16:19:02;;;;;;;;;;;;;;;;;;4951783;28;20142;-64
2023/05/06 16:21:27;;;;;;;;;;;;;;;;;;4970488;28;20371;-64
2023/05/06 16:23:53;;;;;;;;;;;;;;;;;;4968210;28;19982;-67
2023/05/06 16:26:18;;;;;;;;;;;;;;;;;;4937035;28;19918;-64
2023/05/06 16:28:43;;;;;;;;;;;;;;;;;;4957051;28;19922;-64
2023/05/06 16:31:09;;;;;;;;;;;;;;;;;;4965974;28;19955;-64
2023/05/06 16:33:37;;;;;;;;;;;;;;;;;;4956984;28;20023;-65
2023/05/06 16:36:02;;;;;;;;;;;;;;;;;;4962038;28;20452;-63
2023/05/06 16:38:27;;;;;;;;;;;;;;;;;;4974353;28;19932;-64